Time;durP1;ratioP1;P1;durP2;ratioP2;P2;SDS_P1;SDS_P2;PMS_P1;PMS_P2;Temp;Humidity;BMP_temperature;BMP_pressure;BME280_temperature;BME280_humidity;BME280_pressure;Samples;Min_cycle;Max_cycle;Signal;HPM_P1;HPM_P2
2022/09/02 00:00:43;;;;;;;2.60;2.00;;;20.10;54.40;;;;;;5010304;28;20228;-87
2022/09/02 00:03:09;;;;;;;3.08;1.92;;;20.10;54.50;;;;;;5009659;28;20030;-88
2022/09/02 00:05:35;;;;;;;4.50;2.42;;;20.10;54.50;;;;;;4982621;28;20122;-86
2022/09/02 00:08:03;;;;;;;2.65;1.85;;;20.10;54.60;;;;;;5009998;28;20415;-88
2022/09/02 00:10:32;;;;;;;3.50;2.05;;;20.00;54.50;;;;;;5006555;28;20061;-86
2022/09/02 00:12:58;;;;;;;2.50;1.77;;;20.00;54.60;;;;;;4993494;28;20046;-88
2022/09/02 00:15:24;;;;;;;2.72;1.80;;;20.00;54.60;;;;;;5010636;28;20045;-87
2022/09/02 00:17:55;;;;;;;2.65;2.00;;;20.00;54.60;;;;;;5010209;28;20024;-86
2022/09/02 00:20:22;;;;;;;3.25;2.03;;;20.00;54.70;;;;;;5010552;28;20121;-88
2022/09/02 00:22:48;;;;;;;2.50;2.05;;;20.00;54.80;;;;;;4991757;28;20029;-87
2022/09/02 00:25:16;;;;;;;3.88;2.20;;;20.00;54.90;;;;;;5011855;28;20117;-87
2022/09/02 00:27:42;;;;;;;4.25;2.38;;;20.00;55.00;;;;;;5017001;28;20030;-88
2022/09/02 00:30:08;;;;;;;3.17;2.03;;;20.00;55.00;;;;;;4996196;28;20125;-88
2022/09/02 00:32:34;;;;;;;4.10;2.10;;;20.00;55.10;;;;;;5012099;28;20032;-89
2022/09/02 00:35:00;;;;;;;3.45;2.40;;;20.00;55.20;;;;;;4993078;28;20046;-88
2022/09/02 00:37:29;;;;;;;3.55;1.77;;;19.90;55.00;;;;;;4993410;28;20055;-88
2022/09/02 00:39:56;;;;;;;3.70;1.75;;;19.90;55.10;;;;;;5026043;28;20100;-89
2022/09/02 00:42:24;;;;;;;3.35;2.15;;;19.90;55.10;;;;;;5026346;28;20443;-90
2022/09/02 00:44:52;;;;;;;2.90;2.22;;;20.00;55.40;;;;;;5026607;28;20051;-88
2022/09/02 00:47:20;;;;;;;3.45;2.20;;;20.00;55.50;;;;;;5000017;28;20041;-89
2022/09/02 00:49:50;;;;;;;4.50;2.15;;;19.90;55.30;;;;;;5008400;28;20042;-88
2022/09/02 00:52:28;;;;;;;4.30;2.47;;;19.90;55.40;;;;;;5002806;28;20033;-89
2022/09/02 00:55:03;;;;;;;3.63;2.35;;;19.90;55.50;;;;;;5004854;28;20053;-88
2022/09/02 00:57:41;;;;;;;4.38;2.83;;;19.90;55.50;;;;;;5026992;28;20049;-89
2022/09/02 01:00:22;;;;;;;4.05;2.85;;;19.90;55.60;;;;;;4983713;28;20037;-88
2022/09/02 01:02:55;;;;;;;3.00;2.50;;;19.90;55.70;;;;;;5026384;28;20273;-89
2022/09/02 01:05:23;;;;;;;4.82;2.72;;;19.90;55.70;;;;;;5027514;28;20025;-88
2022/09/02 01:07:53;;;;;;;3.85;2.88;;;19.90;55.70;;;;;;5015754;28;20476;-88
2022/09/02 01:10:26;;;;;;;4.05;2.22;;;19.80;55.60;;;;;;4989670;28;20034;-89
2022/09/02 01:12:58;;;;;;;3.35;2.42;;;19.80;55.70;;;;;;5025707;28;20034;-90
2022/09/02 01:15:25;;;;;;;2.78;2.45;;;19.80;55.80;;;;;;5026775;28;20253;-87
2022/09/02 01:17:51;;;;;;;4.40;2.88;;;19.80;55.90;;;;;;4986619;28;20048;-89
2022/09/02 01:20:22;;;;;;;4.63;2.35;;;19.80;56.00;;;;;;5015753;28;20045;-90
2022/09/02 01:22:49;;;;;;;3.63;2.55;;;19.70;55.90;;;;;;4989584;28;20029;-87
2022/09/02 01:25:20;;;;;;;4.88;2.60;;;19.70;55.90;;;;;;5005210;28;20021;-90
2022/09/02 01:27:48;;;;;;;3.10;2.22;;;19.70;56.10;;;;;;4992833;28;20029;-90
2022/09/02 01:30:19;;;;;;;3.70;2.40;;;19.70;56.20;;;;;;5023020;28;20091;-89
2022/09/02 01:32:45;;;;;;;4.13;2.47;;;19.60;56.10;;;;;;4998562;28;20587;-87
2022/09/02 01:35:14;;;;;;;4.03;2.22;;;19.60;56.10;;;;;;5026370;28;20452;-88
2022/09/02 01:37:41;;;;;;;3.58;2.30;;;19.60;56.30;;;;;;4989098;28;20026;-89
2022/09/02 01:40:12;;;;;;;5.53;2.70;;;19.60;56.40;;;;;;4993187;28;20033;-89
2022/09/02 01:42:39;;;;;;;4.68;2.35;;;19.60;56.50;;;;;;4972961;28;20033;-88
2022/09/02 01:45:08;;;;;;;5.40;3.00;;;19.50;56.30;;;;;;5006053;28;20084;-88
2022/09/02 01:47:35;;;;;;;3.08;2.30;;;19.50;56.40;;;;;;4976284;28;20075;-88
2022/09/02 01:50:03;;;;;;;4.50;2.40;;;19.50;56.50;;;;;;4979071;28;20052;-89
2022/09/02 01:52:30;;;;;;;4.68;2.67;;;19.50;56.60;;;;;;5000752;28;20059;-90
2022/09/02 01:54:56;;;;;;;3.72;2.70;;;19.50;56.60;;;;;;4997855;28;20042;-93
2022/09/02 01:57:23;;;;;;;3.55;2.50;;;19.40;56.50;;;;;;5002795;28;20038;-85
2022/09/02 01:59:51;;;;;;;3.75;2.47;;;19.50;56.70;;;;;;5016455;28;20502;-87
2022/09/02 02:02:18;;;;;;;8.13;2.92;;;19.50;56.80;;;;;;5014119;28;20124;-85
2022/09/02 02:04:46;;;;;;;5.00;2.78;;;19.50;56.80;;;;;;4998218;28;20040;-87
2022/09/02 02:07:14;;;;;;;3.67;2.28;;;19.50;56.90;;;;;;5023492;28;20127;-89
2022/09/02 02:09:41;;;;;;;2.80;2.60;;;19.40;56.80;;;;;;5011143;28;20420;-88
2022/09/02 02:12:11;;;;;;;4.75;2.42;;;19.40;56.90;;;;;;5026018;28;20078;-85
2022/09/02 02:14:38;;;;;;;5.28;3.10;;;19.40;56.90;;;;;;4999203;28;20045;-89
2022/09/02 02:17:04;;;;;;;6.72;3.38;;;19.40;57.00;;;;;;5009529;28;20229;-90
2022/09/02 02:19:32;;;;;;;4.35;2.83;;;19.40;57.10;;;;;;5015284;28;20044;-86
2022/09/02 02:21:58;;;;;;;3.67;2.67;;;19.30;57.10;;;;;;4990947;28;20026;-88
2022/09/02 02:24:28;;;;;;;4.00;2.10;;;19.30;57.20;;;;;;5033525;28;20123;-87
2022/09/02 02:26:54;;;;;;;3.45;2.35;;;19.30;57.30;;;;;;5034054;28;20029;-88
2022/09/02 02:29:21;;;;;;;3.90;3.00;;;19.20;57.20;;;;;;5008297;28;20017;-87
2022/09/02 02:31:48;;;;;;;3.20;2.53;;;19.20;57.30;;;;;;5023095;28;20079;-85
2022/09/02 02:34:14;;;;;;;3.25;2.45;;;19.20;57.40;;;;;;5022878;28;20041;-87
2022/09/02 02:36:42;;;;;;;3.78;2.92;;;19.10;57.40;;;;;;4977494;28;20400;-86
2022/09/02 02:39:10;;;;;;;4.72;2.50;;;19.10;57.50;;;;;;4978947;28;20037;-86
2022/09/02 02:41:38;;;;;;;2.80;2.42;;;19.10;57.60;;;;;;5010341;28;20038;-89
2022/09/02 02:44:05;;;;;;;3.63;2.30;;;19.10;57.60;;;;;;5014979;28;20181;-87
2022/09/02 02:46:37;;;;;;;3.15;2.50;;;19.10;57.70;;;;;;4985997;28;20052;-87
2022/09/02 02:49:04;;;;;;;4.22;2.50;;;19.10;57.80;;;;;;5011929;28;20030;-86
2022/09/02 02:51:33;;;;;;;4.55;2.80;;;19.00;57.70;;;;;;5027888;28;20056;-87
2022/09/02 02:54:02;;;;;;;4.97;2.83;;;19.10;57.90;;;;;;5009839;28;20038;-87
2022/09/02 02:56:29;;;;;;;2.92;2.50;;;19.00;57.90;;;;;;5032631;28;20098;-86
2022/09/02 02:59:00;;;;;;;4.95;2.38;;;19.00;57.90;;;;;;5011495;28;20040;-85
2022/09/02 03:01:27;;;;;;;5.35;2.38;;;19.00;58.00;;;;;;5018920;28;20037;-87
2022/09/02 03:03:53;;;;;;;5.13;3.10;;;19.00;58.10;;;;;;4997384;28;20109;-86
2022/09/02 03:06:21;;;;;;;3.63;2.40;;;19.00;58.20;;;;;;4998397;28;20037;-88
2022/09/02 03:08:48;;;;;;;3.75;2.50;;;19.00;58.20;;;;;;5013287;28;20096;-88
2022/09/02 03:11:16;;;;;;;3.78;2.95;;;18.90;58.10;;;;;;5005538;28;20091;-85
2022/09/02 03:13:42;;;;;;;4.97;2.53;;;18.90;58.10;;;;;;5022598;28;20279;-87
2022/09/02 03:16:09;;;;;;;4.40;2.67;;;18.90;58.20;;;;;;4999039;28;20033;-87
2022/09/02 03:18:35;;;;;;;3.65;2.78;;;18.90;58.30;;;;;;5009636;28;20096;-87
2022/09/02 03:21:07;;;;;;;3.13;2.20;;;18.80;58.20;;;;;;5012928;28;20037;-86
2022/09/02 03:23:33;;;;;;;4.03;2.53;;;18.80;58.40;;;;;;5002891;28;20045;-85
2022/09/02 03:26:00;;;;;;;3.88;2.40;;;18.80;58.40;;;;;;5013482;28;20468;-87
2022/09/02 03:28:34;;;;;;;3.42;2.30;;;18.80;58.50;;;;;;4978473;28;20033;-88
2022/09/02 03:31:03;;;;;;;4.68;3.08;;;18.70;58.40;;;;;;5018781;28;20025;-89
2022/09/02 03:33:31;;;;;;;4.78;3.25;;;18.70;58.40;;;;;;5013512;28;20110;-88
2022/09/02 03:35:57;;;;;;;3.30;2.38;;;18.70;58.60;;;;;;5014486;28;20342;-89
2022/09/02 03:38:24;;;;;;;4.15;2.30;;;18.70;58.60;;;;;;5014549;28;20030;-88
2022/09/02 03:40:50;;;;;;;3.75;2.60;;;18.70;58.80;;;;;;5023798;28;20037;-89
2022/09/02 03:43:17;;;;;;;4.97;2.90;;;18.60;58.60;;;;;;4981955;28;20033;-89
2022/09/02 03:45:44;;;;;;;4.60;3.33;;;18.60;58.70;;;;;;4996714;28;20029;-89
2022/09/02 03:48:13;;;;;;;3.67;2.47;;;18.60;58.80;;;;;;4994553;28;20053;-89
2022/09/02 03:50:42;;;;;;;3.08;2.35;;;18.50;58.70;;;;;;4997186;28;20099;-87
2022/09/02 03:53:12;;;;;;;3.17;2.87;;;18.50;58.70;;;;;;5007456;28;20045;-87
2022/09/02 03:55:39;;;;;;;6.10;2.67;;;18.50;58.80;;;;;;4993786;28;20044;-89
2022/09/02 03:58:06;;;;;;;2.95;2.53;;;18.50;58.90;;;;;;5028678;28;20025;-87
2022/09/02 04:00:38;;;;;;;6.40;2.55;;;18.50;58.90;;;;;;5015049;28;20386;-86
2022/09/02 04:03:05;;;;;;;3.33;3.00;;;18.40;58.80;;;;;;4979867;28;20028;-88
2022/09/02 04:05:32;;;;;;;3.42;2.67;;;18.40;58.90;;;;;;4996529;28;20045;-88
2022/09/02 04:07:59;;;;;;;4.35;2.97;;;18.40;59.00;;;;;;4981472;28;20030;-88
2022/09/02 04:10:27;;;;;;;3.42;2.65;;;18.40;59.00;;;;;;5030103;28;20045;-88
2022/09/02 04:12:54;;;;;;;4.90;2.70;;;18.40;59.10;;;;;;5008827;28;20036;-87
2022/09/02 04:15:20;;;;;;;3.03;2.70;;;18.40;59.20;;;;;;5013898;28;20057;-88
2022/09/02 04:17:49;;;;;;;5.95;2.50;;;18.40;59.30;;;;;;5026677;28;20112;-89
2022/09/02 04:20:18;;;;;;;4.47;2.55;;;18.30;59.20;;;;;;5024077;28;20055;-86
2022/09/02 04:22:44;;;;;;;3.30;2.72;;;18.30;59.20;;;;;;5037456;28;20124;-89
2022/09/02 04:25:10;;;;;;;4.78;3.45;;;18.30;59.30;;;;;;5040727;28;20052;-91
2022/09/02 04:27:37;;;;;;;2.78;2.42;;;18.30;59.40;;;;;;5007991;28;20052;-91
2022/09/02 04:30:06;;;;;;;4.53;2.40;;;18.30;59.50;;;;;;5006262;28;20293;-89
2022/09/02 04:32:36;;;;;;;3.85;2.80;;;18.20;59.30;;;;;;5004545;28;20041;-88
2022/09/02 04:35:03;;;;;;;7.68;2.85;;;18.20;59.40;;;;;;4981443;28;20039;-88
2022/09/02 04:37:32;;;;;;;4.45;2.35;;;18.20;59.50;;;;;;5012506;28;20049;-88
2022/09/02 04:40:00;;;;;;;4.75;2.63;;;18.10;59.40;;;;;;5027018;28;20495;-88
2022/09/02 04:42:26;;;;;;;2.85;2.30;;;18.10;59.50;;;;;;4981918;28;20041;-89
2022/09/02 04:44:55;;;;;;;7.18;4.20;;;18.10;59.60;;;;;;4997531;28;20043;-87
2022/09/02 04:47:21;;;;;;;3.50;2.92;;;18.10;59.70;;;;;;4996797;28;20073;-87
2022/09/02 04:49:50;;;;;;;6.03;2.72;;;18.10;59.80;;;;;;5012543;28;20060;-88
2022/09/02 04:52:19;;;;;;;5.63;2.58;;;18.00;59.70;;;;;;4986674;28;20036;-86
2022/09/02 04:54:47;;;;;;;4.38;2.65;;;18.00;59.70;;;;;;5028923;28;20056;-90
2022/09/02 04:57:14;;;;;;;3.13;2.60;;;18.00;59.80;;;;;;5015503;28;20458;-91
2022/09/02 04:59:41;;;;;;;3.25;2.60;;;18.00;59.90;;;;;;4997403;28;20037;-88
2022/09/02 05:02:10;;;;;;;3.08;2.63;;;18.00;59.90;;;;;;4976671;28;20045;-90
2022/09/02 05:04:36;;;;;;;4.05;2.38;;;18.00;60.00;;;;;;5002695;28;20536;-88
2022/09/02 05:07:10;;;;;;;3.53;2.42;;;17.90;59.90;;;;;;4998803;28;20022;-86
2022/09/02 05:09:41;;;;;;;3.72;2.50;;;18.00;60.10;;;;;;4978241;28;20045;-89
2022/09/02 05:12:08;;;;;;;3.20;2.40;;;17.90;60.00;;;;;;4992918;28;20118;-89
2022/09/02 05:14:42;;;;;;;2.67;2.47;;;17.90;60.10;;;;;;5002691;28;20033;-87
2022/09/02 05:17:09;;;;;;;5.13;2.83;;;17.90;60.20;;;;;;4976423;28;20045;-86
2022/09/02 05:19:39;;;;;;;4.53;2.83;;;17.90;60.20;;;;;;4988296;28;20030;-89
2022/09/02 05:22:06;;;;;;;3.50;2.90;;;17.90;60.30;;;;;;5004454;28;20049;-90
2022/09/02 05:24:37;;;;;;;2.90;2.63;;;17.80;60.20;;;;;;4974860;28;20022;-88
2022/09/02 05:27:08;;;;;;;2.97;2.45;;;17.90;60.40;;;;;;4996807;28;20060;-87
2022/09/02 05:29:35;;;;;;;4.13;3.35;;;17.80;60.20;;;;;;4993378;28;20168;-89
2022/09/02 05:32:03;;;;;;;5.63;2.80;;;17.80;60.30;;;;;;4996410;28;20018;-86
2022/09/02 05:34:32;;;;;;;3.88;2.40;;;17.80;60.50;;;;;;4992168;28;20033;-88
2022/09/02 05:37:01;;;;;;;2.92;2.40;;;17.80;60.50;;;;;;4982379;28;20038;-89
2022/09/02 05:39:29;;;;;;;3.75;2.38;;;17.70;60.40;;;;;;4990739;28;20469;-86
2022/09/02 05:41:58;;;;;;;4.75;3.10;;;17.70;60.50;;;;;;4998609;28;20109;-85
2022/09/02 05:44:25;;;;;;;4.90;2.85;;;17.70;60.50;;;;;;4994557;28;20594;-83
2022/09/02 05:46:51;;;;;;;3.78;3.33;;;17.70;60.60;;;;;;5011491;28;20058;-83
2022/09/02 05:49:20;;;;;;;3.50;3.08;;;17.70;60.80;;;;;;5020856;28;20021;-90
2022/09/02 05:51:54;;;;;;;4.55;2.75;;;17.70;61.40;;;;;;5011234;28;20033;-89
2022/09/02 05:54:32;;;;;;;4.05;2.88;;;17.70;61.60;;;;;;4996542;28;20038;-89
2022/09/02 05:57:10;;;;;;;7.93;3.88;;;17.70;61.90;;;;;;5032868;28;20187;-94
2022/09/02 05:59:41;;;;;;;4.80;3.55;;;17.70;62.00;;;;;;5010238;28;20041;-92
2022/09/02 06:02:10;;;;;;;5.82;3.55;;;17.70;62.10;;;;;;5014367;28;20041;-92
2022/09/02 06:04:43;;;;;;;4.97;3.90;;;17.70;62.30;;;;;;5010521;28;20038;-90
2022/09/02 06:07:25;;;;;;;5.10;3.28;;;17.70;62.50;;;;;;5010903;28;20022;-93
2022/09/02 06:09:53;;;;;;;5.75;3.17;;;17.70;62.50;;;;;;5008162;28;20050;-87
2022/09/02 06:12:23;;;;;;;3.38;3.08;;;17.80;62.70;;;;;;4995855;28;20489;-82
2022/09/02 06:14:49;;;;;;;3.92;3.17;;;17.80;62.80;;;;;;4994280;28;20052;-87
2022/09/02 06:17:17;;;;;;;6.70;4.13;;;17.80;62.90;;;;;;5026117;28;20443;-92
2022/09/02 06:19:51;;;;;;;7.93;3.08;;;17.80;63.00;;;;;;5016086;28;20346;-88
2022/09/02 06:22:17;;;;;;;4.78;3.50;;;17.80;63.10;;;;;;5015720;28;20048;-90
2022/09/02 06:24:44;;;;;;;7.18;3.88;;;17.80;63.20;;;;;;4985101;28;20071;-92
2022/09/02 06:27:16;;;;;;;4.13;3.47;;;17.80;63.40;;;;;;5012295;28;20045;-88
2022/09/02 06:29:46;;;;;;;7.20;4.00;;;17.80;63.40;;;;;;5006165;28;20332;-91
2022/09/02 06:32:17;;;;;;;5.72;4.00;;;17.80;63.60;;;;;;4987509;28;20064;-87
2022/09/02 06:34:44;;;;;;;7.00;3.53;;;17.90;63.90;;;;;;5002649;28;20091;-85
2022/09/02 06:37:10;;;;;;;8.00;3.30;;;17.90;64.00;;;;;;5008597;28;20073;-83
2022/09/02 06:39:42;;;;;;;4.55;2.90;;;18.00;64.40;;;;;;4986219;28;20041;-83
2022/09/02 06:42:10;;;;;;;2.97;2.30;;;18.00;64.90;;;;;;5006877;28;20242;-82
2022/09/02 06:44:44;;;;;;;6.15;3.47;;;18.20;65.40;;;;;;5010444;28;20085;-84
2022/09/02 06:47:11;;;;;;;5.38;2.80;;;18.40;65.80;;;;;;5005237;28;20069;-86
2022/09/02 06:49:37;;;;;;;3.50;2.65;;;18.70;66.10;;;;;;4991622;28;20034;-85
2022/09/02 06:52:04;;;;;;;7.53;2.72;;;18.90;66.20;;;;;;5004564;28;20038;-85
2022/09/02 06:54:34;;;;;;;3.55;2.88;;;19.10;66.10;;;;;;4971459;28;20053;-85
2022/09/02 06:57:08;;;;;;;4.05;3.08;;;19.30;66.10;;;;;;4974796;28;20034;-90
2022/09/02 06:59:37;;;;;;;5.22;3.00;;;19.50;66.10;;;;;;5016990;28;20045;-85
2022/09/02 07:02:03;;;;;;;4.63;2.50;;;19.80;66.30;;;;;;5004932;28;20211;-86
2022/09/02 07:07:18;;;;;;;3.10;2.45;;;20.10;66.10;;;;;;4991506;28;20048;-86
2022/09/02 07:10:00;;;;;;;5.50;2.83;;;20.30;65.90;;;;;;4989001;28;20030;-89
2022/09/02 07:12:27;;;;;;;8.75;2.80;;;20.40;65.60;;;;;;4976366;28;20132;-86
2022/09/02 07:15:00;;;;;;;3.70;2.70;;;20.60;65.70;;;;;;4975133;28;20033;-88
2022/09/02 07:17:31;;;;;;;4.28;3.10;;;20.70;65.60;;;;;;5006208;28;20038;-88
2022/09/02 07:20:04;;;;;;;4.32;3.13;;;20.80;65.60;;;;;;5007209;28;20025;-88
2022/09/02 07:22:37;;;;;;;3.13;2.38;;;20.90;65.50;;;;;;4974360;28;20129;-86
2022/09/02 07:25:05;;;;;;;8.45;2.90;;;21.00;65.50;;;;;;5007251;28;20057;-82
2022/09/02 07:27:31;;;;;;;4.78;2.30;;;21.10;65.50;;;;;;5006298;28;20056;-84
2022/09/02 07:29:58;;;;;;;3.97;2.42;;;21.10;65.50;;;;;;4986331;28;20038;-86
2022/09/02 07:32:24;;;;;;;3.08;2.67;;;21.10;65.30;;;;;;4972271;28;20442;-86
2022/09/02 07:34:50;;;;;;;5.72;2.83;;;21.10;65.30;;;;;;5005915;28;20042;-90
2022/09/02 07:37:19;;;;;;;7.80;2.85;;;21.20;65.30;;;;;;4974010;28;20339;-88
2022/09/02 07:39:47;;;;;;;5.10;2.50;;;21.20;65.30;;;;;;5006981;28;20026;-89
2022/09/02 07:42:15;;;;;;;5.45;2.88;;;21.20;65.20;;;;;;4989205;28;20038;-86
2022/09/02 07:44:43;;;;;;;8.95;2.88;;;21.30;65.20;;;;;;4989301;28;20103;-85
2022/09/02 07:47:11;;;;;;;5.10;2.83;;;21.30;65.20;;;;;;5019558;28;20489;-85
2022/09/02 07:49:39;;;;;;;7.95;2.70;;;21.30;65.00;;;;;;5014454;28;20118;-84
2022/09/02 07:52:05;;;;;;;8.15;2.78;;;21.30;64.90;;;;;;5006458;28;20038;-87
2022/09/02 07:54:33;;;;;;;5.97;2.53;;;21.40;65.00;;;;;;5006286;28;20049;-87
2022/09/02 07:57:01;;;;;;;6.78;2.22;;;21.40;64.90;;;;;;5001009;28;20019;-85
2022/09/02 07:59:28;;;;;;;6.30;2.92;;;21.50;64.90;;;;;;5017582;28;20121;-85
2022/09/02 08:01:56;;;;;;;7.95;2.85;;;21.50;64.80;;;;;;4979032;28;20130;-84
2022/09/02 08:04:23;;;;;;;6.25;2.70;;;21.50;64.70;;;;;;4991614;28;20026;-86
2022/09/02 08:06:51;;;;;;;6.13;2.72;;;21.50;64.70;;;;;;5007493;28;20083;-85
2022/09/02 08:09:18;;;;;;;4.25;2.50;;;21.50;64.70;;;;;;4982387;28;20033;-85
2022/09/02 08:11:46;;;;;;;4.53;2.78;;;21.60;64.70;;;;;;5006123;28;20380;-84
2022/09/02 08:14:19;;;;;;;6.60;2.90;;;21.60;65.10;;;;;;5007018;28;20034;-80
2022/09/02 08:16:46;;;;;;;7.68;3.15;;;21.70;64.70;;;;;;4983274;28;20353;-84
2022/09/02 08:19:13;;;;;;;5.95;3.10;;;21.80;64.60;;;;;;5011326;28;20030;-85
2022/09/02 08:21:41;;;;;;;5.20;2.20;;;21.90;64.50;;;;;;5012199;28;21655;-86
2022/09/02 08:24:07;;;;;;;7.75;3.22;;;22.00;64.40;;;;;;5020647;28;20136;-87
2022/09/02 08:26:35;;;;;;;6.35;2.80;;;22.10;64.40;;;;;;5005680;28;20091;-82
2022/09/02 08:29:06;;;;;;;5.88;2.75;;;22.20;64.30;;;;;;5005147;28;20018;-86
2022/09/02 08:31:35;;;;;;;4.68;2.60;;;22.30;64.20;;;;;;4997989;28;20166;-85
2022/09/02 08:34:01;;;;;;;8.30;3.20;;;22.40;64.00;;;;;;5015349;28;20089;-84
2022/09/02 08:36:27;;;;;;;7.82;3.60;;;22.40;63.80;;;;;;5015337;28;20068;-85
2022/09/02 08:38:56;;;;;;;7.15;3.35;;;22.50;63.90;;;;;;5016546;28;20124;-85
2022/09/02 08:41:24;;;;;;;5.15;3.20;;;22.60;63.80;;;;;;5016220;28;20022;-86
2022/09/02 08:43:54;;;;;;;7.53;3.15;;;22.70;63.70;;;;;;5016603;28;20081;-88
2022/09/02 08:46:25;;;;;;;12.25;3.97;;;22.80;63.70;;;;;;5015720;28;20040;-87
2022/09/02 08:49:31;;;;;;;7.57;3.13;;;22.80;63.40;;;;;;5007068;28;20026;-87
2022/09/02 08:52:01;;;;;;;10.18;3.20;;;23.00;63.40;;;;;;4973262;28;20440;-85
2022/09/02 08:54:31;;;;;;;10.75;2.78;;;23.10;63.20;;;;;;5009468;28;20037;-85
2022/09/02 08:56:57;;;;;;;5.25;2.72;;;23.20;63.00;;;;;;5009755;28;20048;-85
2022/09/02 08:59:27;;;;;;;10.68;3.53;;;23.40;63.00;;;;;;5013882;28;20099;-85
2022/09/02 09:02:27;;;;;;;7.13;2.38;;;23.50;62.90;;;;;;4991824;28;20039;-85
2022/09/02 09:05:05;;;;;;;9.68;2.67;;;23.60;62.60;;;;;;5008636;28;20033;-89
2022/09/02 09:07:53;;;;;;;4.68;2.45;;;23.70;62.50;;;;;;5006519;28;20040;-86
2022/09/02 09:10:29;;;;;;;6.65;2.70;;;23.80;62.50;;;;;;4994113;28;20400;-86
2022/09/02 09:13:13;;;;;;;7.90;3.05;;;24.00;62.50;;;;;;5004177;28;20029;-84
2022/09/02 09:15:49;;;;;;;7.25;2.72;;;24.10;62.30;;;;;;5008726;28;20037;-86
2022/09/02 09:18:18;;;;;;;9.50;2.95;;;24.20;62.20;;;;;;5006107;28;20029;-86
2022/09/02 09:20:45;;;;;;;3.92;2.50;;;24.40;62.20;;;;;;5005350;28;20033;-86
2022/09/02 09:23:32;;;;;;;5.47;2.78;;;24.50;62.00;;;;;;5027160;28;20026;-89
2022/09/02 09:26:09;;;;;;;6.22;3.05;;;24.70;61.80;;;;;;4993075;28;20101;-83
2022/09/02 09:28:46;;;;;;;6.88;3.00;;;24.90;61.70;;;;;;5003899;28;20131;-85
2022/09/02 09:31:16;;;;;;;4.45;2.33;;;25.00;61.40;;;;;;4992230;28;20396;-86
2022/09/02 09:34:01;;;;;;;7.85;3.00;;;25.10;61.20;;;;;;5001478;28;20097;-85
2022/09/02 09:36:40;;;;;;;6.25;2.80;;;25.10;60.80;;;;;;4982348;28;20558;-86
2022/09/02 09:39:24;;;;;;;7.22;3.05;;;25.20;60.60;;;;;;5025696;28;20068;-84
2022/09/02 09:41:53;;;;;;;8.70;3.35;;;25.20;60.30;;;;;;5027306;28;20056;-86
2022/09/02 09:44:47;;;;;;;9.30;2.92;;;25.20;60.40;;;;;;5029099;28;20038;-91
2022/09/02 09:47:15;;;;;;;7.28;3.13;;;25.30;60.20;;;;;;5031537;28;20283;-90
2022/09/02 09:49:43;;;;;;;10.82;2.83;;;25.30;60.20;;;;;;5013248;28;20029;-89
2022/09/02 09:52:09;;;;;;;9.75;3.30;;;25.40;60.10;;;;;;5033289;28;20446;-92
2022/09/02 09:54:35;;;;;;;8.02;3.50;;;25.40;60.00;;;;;;5029699;28;20130;-91
2022/09/02 09:57:18;;;;;;;7.53;2.67;;;25.40;59.90;;;;;;5032199;28;20030;-92
2022/09/02 09:59:46;;;;;;;;;;;25.50;59.80;;;;;;5013800;28;20045;-93
2022/09/02 10:02:24;;;;;;;7.50;2.85;;;25.50;59.80;;;;;;5003781;28;20454;-86
2022/09/02 10:05:14;;;;;;;6.85;2.50;;;25.70;59.70;;;;;;4979452;28;20145;-87
2022/09/02 10:07:42;;;;;;;6.05;2.72;;;25.70;59.30;;;;;;4990671;28;20155;-89
2022/09/02 10:10:17;;;;;;;6.25;2.70;;;25.80;59.30;;;;;;5023956;28;20029;-90
2022/09/02 10:12:46;;;;;;;10.13;3.10;;;25.80;59.20;;;;;;4987709;28;20037;-87
2022/09/02 10:15:12;;;;;;;7.35;2.35;;;25.70;59.20;;;;;;4999841;28;20130;-87
2022/09/02 10:18:04;;;;;;;4.80;2.50;;;25.70;59.20;;;;;;5030368;28;20091;-88
2022/09/02 10:20:49;;;;;;;5.93;2.88;;;25.60;59.00;;;;;;5005549;28;20025;-87
2022/09/02 10:24:03;;;;;;;6.55;2.65;;;25.50;59.10;;;;;;5029790;28;20030;-85
2022/09/02 10:26:30;;;;;;;6.20;3.28;;;25.50;59.10;;;;;;4901982;29;20076;-86
2022/09/02 10:29:05;;;;;;;5.93;3.08;;;25.50;59.20;;;;;;4917218;29;20024;-86
2022/09/02 10:31:57;;;;;;;4.57;2.67;;;25.50;59.20;;;;;;4945633;28;20045;-83
2022/09/02 10:35:07;;;;;;;4.40;2.42;;;25.40;59.00;;;;;;4975333;28;20045;-93
2022/09/02 10:37:46;;;;;;;5.90;2.33;;;25.40;59.00;;;;;;5009191;28;20057;-90
2022/09/02 10:40:24;;;;;;;5.07;2.20;;;25.50;59.10;;;;;;5011876;28;20051;-85
2022/09/02 10:43:08;;;;;;;4.05;2.05;;;25.40;59.00;;;;;;4991290;28;20045;-86
2022/09/02 10:45:44;;;;;;;4.72;2.03;;;25.50;58.90;;;;;;5012209;28;20377;-87
2022/09/02 10:48:35;;;;;;;7.20;2.55;;;25.60;58.80;;;;;;4985779;28;20420;-87
2022/09/02 10:51:17;;;;;;;5.03;2.53;;;25.60;58.60;;;;;;5006060;28;20041;-90
2022/09/02 10:53:54;;;;;;;4.40;2.67;;;25.60;58.60;;;;;;4996939;28;20274;-89
2022/09/02 10:56:29;;;;;;;6.65;2.40;;;25.70;58.50;;;;;;5007362;28;20046;-89
2022/09/02 10:58:58;;;;;;;6.13;2.53;;;25.70;58.30;;;;;;4995377;28;20586;-89
2022/09/02 11:01:39;;;;;;;6.72;2.47;;;25.70;58.20;;;;;;5024525;28;20037;-88
2022/09/02 11:04:48;;;;;;;4.95;3.13;;;25.70;58.00;;;;;;5000350;28;20409;-90
2022/09/02 11:07:19;;;;;;;5.90;2.25;;;25.80;57.90;;;;;;4912507;29;20031;-92
2022/09/02 11:09:58;;;;;;;4.38;2.00;;;26.10;57.80;;;;;;4919101;29;20032;-90
2022/09/02 11:12:40;;;;;;;4.50;2.55;;;26.30;57.20;;;;;;4963343;28;20533;-89
2022/09/02 11:15:23;;;;;;;6.68;2.42;;;26.50;57.00;;;;;;5018346;28;20075;-89
2022/09/02 11:18:20;;;;;;;4.97;2.28;;;26.70;56.70;;;;;;5028662;28;20209;-81
2022/09/02 11:21:00;;;;;;;8.25;2.35;;;27.00;56.10;;;;;;5004494;28;20050;-83
2022/09/02 11:23:44;;;;;;;6.63;2.72;;;27.10;55.50;;;;;;5009540;28;20037;-85
2022/09/02 11:26:19;;;;;;;3.25;2.20;;;27.20;55.00;;;;;;5027461;28;20042;-85
2022/09/02 11:29:17;;;;;;;8.05;2.58;;;27.10;54.40;;;;;;5010531;28;20087;-85
2022/09/02 11:31:56;;;;;;;4.25;2.50;;;27.10;53.90;;;;;;4985123;28;20034;-85
2022/09/02 11:34:33;;;;;;;7.45;2.95;;;27.00;54.00;;;;;;5008914;28;20502;-84
2022/09/02 11:37:35;;;;;;;5.00;2.40;;;27.00;53.80;;;;;;5010273;28;20041;-82
2022/09/02 11:40:25;;;;;;;7.22;3.05;;;27.00;53.60;;;;;;5000417;28;20067;-83
2022/09/02 11:43:09;;;;;;;6.40;2.30;;;26.90;53.50;;;;;;5000473;28;20021;-87
2022/09/02 11:45:43;;;;;;;6.78;2.75;;;27.00;53.50;;;;;;5018031;28;20028;-87
2022/09/02 11:48:23;;;;;;;5.57;2.40;;;26.90;53.50;;;;;;4969409;28;20053;-86
2022/09/02 11:50:55;;;;;;;7.88;3.13;;;26.80;53.40;;;;;;5015883;28;20052;-85
2022/09/02 11:53:37;;;;;;;5.85;2.80;;;26.80;53.20;;;;;;5009977;28;20034;-90
2022/09/02 11:56:20;;;;;;;5.50;2.38;;;26.80;53.00;;;;;;5036599;28;20378;-87
2022/09/02 11:58:51;;;;;;;4.93;3.60;;;26.90;52.70;;;;;;5018001;28;20491;-85
2022/09/02 12:01:22;;;;;;;4.57;3.30;;;27.00;52.50;;;;;;5023102;28;20029;-86
2022/09/02 12:04:17;;;;;;;3.67;2.75;;;27.10;52.30;;;;;;5025202;28;20044;-84
2022/09/02 12:07:07;;;;;;;7.15;3.15;;;27.20;52.70;;;;;;4997022;28;20041;-86
2022/09/02 12:09:53;;;;;;;5.25;3.10;;;27.30;51.70;;;;;;5023371;28;20049;-85
2022/09/02 12:12:41;;;;;;;5.05;2.65;;;27.40;51.50;;;;;;5002489;28;20061;-84
2022/09/02 12:15:16;;;;;;;5.93;3.05;;;27.50;51.10;;;;;;5016229;28;20033;-86
2022/09/02 12:17:48;;;;;;;4.88;2.83;;;27.50;50.80;;;;;;5009578;28;20449;-84
2022/09/02 12:20:41;;;;;;;4.72;2.97;;;27.50;50.50;;;;;;5019082;28;20038;-83
2022/09/02 12:23:10;;;;;;;4.35;3.45;;;27.60;50.10;;;;;;5007647;28;20034;-85
2022/09/02 12:25:45;;;;;;;3.55;2.90;;;27.60;50.20;;;;;;5011937;28;20109;-87
2022/09/02 12:28:20;;;;;;;3.83;2.78;;;27.60;49.80;;;;;;5003777;28;20299;-88
2022/09/02 12:31:00;;;;;;;4.55;3.42;;;27.70;49.80;;;;;;4998707;28;20043;-86
2022/09/02 12:33:39;;;;;;;4.05;2.80;;;27.70;49.40;;;;;;5008738;28;20029;-86
2022/09/02 12:36:07;;;;;;;5.15;2.80;;;27.80;49.30;;;;;;5025260;28;20291;-84
2022/09/02 12:38:38;;;;;;;6.35;3.08;;;28.00;49.20;;;;;;5024201;28;20495;-84
2022/09/02 12:41:04;;;;;;;6.63;3.10;;;28.00;49.10;;;;;;4997247;28;20029;-85
2022/09/02 12:43:40;;;;;;;6.72;3.17;;;28.00;48.90;;;;;;4977610;28;20033;-86
2022/09/02 12:46:27;;;;;;;4.10;2.90;;;28.00;48.70;;;;;;4991922;28;20415;-84
2022/09/02 12:49:25;;;;;;;6.43;3.58;;;28.10;48.50;;;;;;5003607;28;20401;-86
2022/09/02 12:51:51;;;;;;;5.55;3.20;;;28.10;48.40;;;;;;5007552;28;20525;-91
2022/09/02 12:54:23;;;;;;;4.40;2.95;;;28.00;48.50;;;;;;4976929;28;20037;-93
2022/09/02 12:56:51;;;;;;;7.05;2.72;;;28.00;48.30;;;;;;5010462;28;20033;-92
2022/09/02 12:59:33;;;;;;;3.58;2.75;;;28.00;48.80;;;;;;5025736;28;20087;-92
2022/09/02 13:02:20;;;;;;;4.40;2.37;;;28.00;47.80;;;;;;5017379;28;20032;-95
2022/09/02 13:05:23;;;;;;;2.78;2.10;;;28.20;47.80;;;;;;5001537;28;20033;-90
2022/09/02 13:08:33;;;;;;;4.55;3.00;;;28.50;47.60;;;;;;4960296;28;20052;-91
2022/09/02 13:11:17;;;;;;;5.20;2.28;;;28.80;47.20;;;;;;4962804;28;20096;-87
2022/09/02 13:14:22;;;;;;;5.03;2.80;;;29.10;47.00;;;;;;4996893;28;20057;-86
2022/09/02 13:17:00;;;;;;;5.40;2.15;;;29.40;46.40;;;;;;4998344;28;20034;-84